sensor_id;sensor_type;location;lat;lon;timestamp;pressure;altitude;pressure_sealevel;temperature;humidity
8140;BME280;4111;50.972;7.072;2024-02-23T00:02:10;98523.91;;;8.20;80.39
8140;BME280;4111;50.972;7.072;2024-02-23T00:04:37;98545.53;;;8.20;79.99
8140;BME280;4111;50.972;7.072;2024-02-23T00:07:03;98555.50;;;8.19;78.86
8140;BME280;4111;50.972;7.072;2024-02-23T00:09:30;98569.31;;;8.18;77.95
8140;BME280;4111;50.972;7.072;2024-02-23T00:11:57;98568.22;;;8.19;77.33
8140;BME280;4111;50.972;7.072;2024-02-23T00:14:23;98569.88;;;8.14;77.62
8140;BME280;4111;50.972;7.072;2024-02-23T00:16:50;98566.63;;;8.18;77.46
8140;BME280;4111;50.972;7.072;2024-02-23T00:19:17;98573.63;;;8.19;77.49
8140;BME280;4111;50.972;7.072;2024-02-23T00:21:46;98583.38;;;8.20;77.57
8140;BME280;4111;50.972;7.072;2024-02-23T00:24:17;98603.31;;;8.24;77.62
8140;BME280;4111;50.972;7.072;2024-02-23T00:26:43;98609.81;;;8.23;78.29
8140;BME280;4111;50.972;7.072;2024-02-23T00:29:10;98626.63;;;8.14;78.91
8140;BME280;4111;50.972;7.072;2024-02-23T00:31:38;98627.50;;;8.10;79.95
8140;BME280;4111;50.972;7.072;2024-02-23T00:34:07;98623.25;;;7.99;80.10
8140;BME280;4111;50.972;7.072;2024-02-23T00:36:41;98624.91;;;7.94;80.48
8140;BME280;4111;50.972;7.072;2024-02-23T00:39:08;98619.28;;;7.86;80.70
8140;BME280;4111;50.972;7.072;2024-02-23T00:41:35;98632.25;;;7.84;81.08
8140;BME280;4111;50.972;7.072;2024-02-23T00:44:03;98643.63;;;7.81;81.04
8140;BME280;4111;50.972;7.072;2024-02-23T00:46:29;98636.66;;;7.74;81.59
8140;BME280;4111;50.972;7.072;2024-02-23T00:48:56;98652.84;;;7.74;82.18
8140;BME280;4111;50.972;7.072;2024-02-23T00:51:23;98651.22;;;7.73;82.37
8140;BME280;4111;50.972;7.072;2024-02-23T00:53:49;98654.97;;;7.78;82.34
8140;BME280;4111;50.972;7.072;2024-02-23T00:56:16;98667.44;;;7.73;82.68
8140;BME280;4111;50.972;7.072;2024-02-23T00:58:42;98662.84;;;7.74;82.75
8140;BME280;4111;50.972;7.072;2024-02-23T01:01:09;98668.56;;;7.67;83.42
8140;BME280;4111;50.972;7.072;2024-02-23T01:03:35;98681.53;;;7.65;83.73
8140;BME280;4111;50.972;7.072;2024-02-23T01:06:02;98689.66;;;7.60;84.29
8140;BME280;4111;50.972;7.072;2024-02-23T01:08:29;98692.38;;;7.55;84.97
8140;BME280;4111;50.972;7.072;2024-02-23T01:10:55;98693.22;;;7.50;85.12
8140;BME280;4111;50.972;7.072;2024-02-23T01:13:22;98703.47;;;7.48;85.50
8140;BME280;4111;50.972;7.072;2024-02-23T01:15:48;98710.50;;;7.44;85.66
8140;BME280;4111;50.972;7.072;2024-02-23T01:18:15;98715.63;;;7.46;85.68
8140;BME280;4111;50.972;7.072;2024-02-23T01:20:42;98718.38;;;7.41;85.65
8140;BME280;4111;50.972;7.072;2024-02-23T01:23:08;98728.06;;;7.47;85.37
8140;BME280;4111;50.972;7.072;2024-02-23T01:25:35;98720.75;;;7.42;85.19
8140;BME280;4111;50.972;7.072;2024-02-23T01:28:01;98723.75;;;7.41;84.81
8140;BME280;4111;50.972;7.072;2024-02-23T01:30:29;98742.66;;;7.41;84.54
8140;BME280;4111;50.972;7.072;2024-02-23T01:32:56;98735.91;;;7.38;84.00
8140;BME280;4111;50.972;7.072;2024-02-23T01:35:23;98737.28;;;7.30;84.11
8140;BME280;4111;50.972;7.072;2024-02-23T01:37:49;98734.56;;;7.30;83.91
8140;BME280;4111;50.972;7.072;2024-02-23T01:40:16;98742.41;;;7.32;83.62
8140;BME280;4111;50.972;7.072;2024-02-23T01:42:43;98741.91;;;7.25;83.88
8140;BME280;4111;50.972;7.072;2024-02-23T01:45:09;98747.28;;;7.25;83.19
8140;BME280;4111;50.972;7.072;2024-02-23T01:47:36;98748.09;;;7.25;83.62
8140;BME280;4111;50.972;7.072;2024-02-23T01:50:03;98742.13;;;7.28;83.38
8140;BME280;4111;50.972;7.072;2024-02-23T01:52:30;98752.94;;;7.28;83.41
8140;BME280;4111;50.972;7.072;2024-02-23T01:54:56;98755.66;;;7.23;82.92
8140;BME280;4111;50.972;7.072;2024-02-23T01:57:24;98761.59;;;7.25;83.10
8140;BME280;4111;50.972;7.072;2024-02-23T02:00:11;98769.72;;;7.15;82.81
8140;BME280;4111;50.972;7.072;2024-02-23T02:02:41;98769.16;;;7.03;82.91
8140;BME280;4111;50.972;7.072;2024-02-23T02:05:09;98772.41;;;7.10;82.92
8140;BME280;4111;50.972;7.072;2024-02-23T02:07:35;98768.63;;;7.06;83.14
8140;BME280;4111;50.972;7.072;2024-02-23T02:10:02;98779.97;;;6.98;82.78
8140;BME280;4111;50.972;7.072;2024-02-23T02:12:30;98778.91;;;6.93;82.77
8140;BME280;4111;50.972;7.072;2024-02-23T02:14:56;98770.28;;;6.91;82.93
8140;BME280;4111;50.972;7.072;2024-02-23T02:17:23;98774.59;;;6.98;82.87
8140;BME280;4111;50.972;7.072;2024-02-23T02:19:50;98778.09;;;7.03;82.57
8140;BME280;4111;50.972;7.072;2024-02-23T02:22:16;98774.03;;;7.11;82.84
8140;BME280;4111;50.972;7.072;2024-02-23T02:24:43;98776.47;;;7.02;82.45
8140;BME280;4111;50.972;7.072;2024-02-23T02:27:12;98781.31;;;6.95;82.14
8140;BME280;4111;50.972;7.072;2024-02-23T02:29:38;98793.47;;;6.92;81.81
8140;BME280;4111;50.972;7.072;2024-02-23T02:32:05;98788.34;;;6.96;81.84
8140;BME280;4111;50.972;7.072;2024-02-23T02:34:32;98787.81;;;6.94;81.69
8140;BME280;4111;50.972;7.072;2024-02-23T02:37:00;98793.47;;;6.92;81.64
8140;BME280;4111;50.972;7.072;2024-02-23T02:39:27;98799.94;;;6.91;81.03
8140;BME280;4111;50.972;7.072;2024-02-23T02:41:54;98807.50;;;6.94;81.28
8140;BME280;4111;50.972;7.072;2024-02-23T02:44:20;98803.19;;;6.93;80.87
8140;BME280;4111;50.972;7.072;2024-02-23T02:46:47;98805.88;;;6.88;80.86
8140;BME280;4111;50.972;7.072;2024-02-23T02:49:13;98808.56;;;6.88;80.90
8140;BME280;4111;50.972;7.072;2024-02-23T02:51:40;98825.28;;;6.90;81.09
8140;BME280;4111;50.972;7.072;2024-02-23T02:54:06;98820.44;;;6.82;80.95
8140;BME280;4111;50.972;7.072;2024-02-23T02:56:33;98809.66;;;6.72;80.61
8140;BME280;4111;50.972;7.072;2024-02-23T02:58:59;98822.59;;;6.75;80.83
8140;BME280;4111;50.972;7.072;2024-02-23T03:01:26;98812.88;;;6.69;81.16
8140;BME280;4111;50.972;7.072;2024-02-23T03:03:52;98819.06;;;6.69;80.94
8140;BME280;4111;50.972;7.072;2024-02-23T03:06:19;98814.25;;;6.71;80.87
8140;BME280;4111;50.972;7.072;2024-02-23T03:08:45;98816.38;;;6.69;80.69
8140;BME280;4111;50.972;7.072;2024-02-23T03:11:12;98822.84;;;6.68;80.76
8140;BME280;4111;50.972;7.072;2024-02-23T03:13:38;98818.81;;;6.71;81.04
8140;BME280;4111;50.972;7.072;2024-02-23T03:16:05;98818.81;;;6.71;80.84
8140;BME280;4111;50.972;7.072;2024-02-23T03:18:31;98816.94;;;6.71;80.76
8140;BME280;4111;50.972;7.072;2024-02-23T03:20:58;98823.13;;;6.72;80.39
8140;BME280;4111;50.972;7.072;2024-02-23T03:23:24;98841.47;;;6.75;80.51
8140;BME280;4111;50.972;7.072;2024-02-23T03:25:51;98825.81;;;6.67;80.56
8140;BME280;4111;50.972;7.072;2024-02-23T03:28:20;98824.75;;;6.68;80.78
8140;BME280;4111;50.972;7.072;2024-02-23T03:30:47;98835.25;;;6.64;80.62
8140;BME280;4111;50.972;7.072;2024-02-23T03:33:13;98820.69;;;6.65;80.67
8140;BME280;4111;50.972;7.072;2024-02-23T03:35:40;98827.72;;;6.66;80.71
8140;BME280;4111;50.972;7.072;2024-02-23T03:38:11;98826.38;;;6.64;80.69
8140;BME280;4111;50.972;7.072;2024-02-23T03:40:41;98831.19;;;6.67;80.95
8140;BME280;4111;50.972;7.072;2024-02-23T03:43:07;98824.75;;;6.58;80.83
8140;BME280;4111;50.972;7.072;2024-02-23T03:45:34;98826.34;;;6.59;81.01
8140;BME280;4111;50.972;7.072;2024-02-23T03:48:03;98834.69;;;6.57;80.84
8140;BME280;4111;50.972;7.072;2024-02-23T03:50:30;98838.75;;;6.54;80.62
8140;BME280;4111;50.972;7.072;2024-02-23T03:52:57;98847.34;;;6.51;80.97
8140;BME280;4111;50.972;7.072;2024-02-23T03:55:23;98844.66;;;6.46;80.93
8140;BME280;4111;50.972;7.072;2024-02-23T03:57:50;98849.50;;;6.49;81.10
8140;BME280;4111;50.972;7.072;2024-02-23T04:00:17;98846.81;;;6.44;80.62
8140;BME280;4111;50.972;7.072;2024-02-23T04:02:43;98849.50;;;6.49;81.17
8140;BME280;4111;50.972;7.072;2024-02-23T04:05:10;98848.72;;;6.44;81.14
8140;BME280;4111;50.972;7.072;2024-02-23T04:07:36;98844.91;;;6.45;81.32
8140;BME280;4111;50.972;7.072;2024-02-23T04:10:03;98853.28;;;6.53;81.26
8140;BME280;4111;50.972;7.072;2024-02-23T04:12:31;98856.53;;;6.55;81.44
8140;BME280;4111;50.972;7.072;2024-02-23T04:14:57;98855.19;;;6.53;81.26
8140;BME280;4111;50.972;7.072;2024-02-23T04:17:25;98853.84;;;6.50;81.53
8140;BME280;4111;50.972;7.072;2024-02-23T04:19:52;98861.13;;;6.60;81.67
8140;BME280;4111;50.972;7.072;2024-02-23T04:22:19;98859.78;;;6.63;81.45
8140;BME280;4111;50.972;7.072;2024-02-23T04:24:45;98865.44;;;6.56;81.81
8140;BME280;4111;50.972;7.072;2024-02-23T04:27:12;98865.72;;;6.60;81.78
8140;BME280;4111;50.972;7.072;2024-02-23T04:29:38;98874.31;;;6.51;81.38
8140;BME280;4111;50.972;7.072;2024-02-23T04:32:05;98868.41;;;6.54;81.32
8140;BME280;4111;50.972;7.072;2024-02-23T04:34:31;98863.78;;;6.45;81.38
8140;BME280;4111;50.972;7.072;2024-02-23T04:36:58;98857.31;;;6.51;81.57
8140;BME280;4111;50.972;7.072;2024-02-23T04:39:24;98858.13;;;6.51;81.53
8140;BME280;4111;50.972;7.072;2024-02-23T04:41:51;98869.22;;;6.60;81.20
8140;BME280;4111;50.972;7.072;2024-02-23T04:44:17;98872.16;;;6.53;81.28
8140;BME280;4111;50.972;7.072;2024-02-23T04:46:44;98874.59;;;6.55;80.97
8140;BME280;4111;50.972;7.072;2024-02-23T04:49:10;98873.28;;;6.58;80.85
8140;BME280;4111;50.972;7.072;2024-02-23T04:51:38;98877.03;;;6.67;81.07
8140;BME280;4111;50.972;7.072;2024-02-23T04:54:05;98879.75;;;6.67;80.98
8140;BME280;4111;50.972;7.072;2024-02-23T04:56:31;98874.38;;;6.72;80.82
8140;BME280;4111;50.972;7.072;2024-02-23T04:58:59;98886.78;;;6.78;81.00
8140;BME280;4111;50.972;7.072;2024-02-23T05:01:26;98875.47;;;6.76;81.07
8140;BME280;4111;50.972;7.072;2024-02-23T05:03:52;98881.69;;;6.82;80.58
8140;BME280;4111;50.972;7.072;2024-02-23T05:06:19;98871.13;;;6.70;80.31
8140;BME280;4111;50.972;7.072;2024-02-23T05:08:46;98884.06;;;6.68;80.57
8140;BME280;4111;50.972;7.072;2024-02-23T05:11:14;98879.22;;;6.75;80.79
8140;BME280;4111;50.972;7.072;2024-02-23T05:13:41;98873.28;;;6.68;80.60
8140;BME280;4111;50.972;7.072;2024-02-23T05:16:08;98867.34;;;6.71;80.79
8140;BME280;4111;50.972;7.072;2024-02-23T05:18:34;98868.44;;;6.70;80.80
8140;BME280;4111;50.972;7.072;2024-02-23T05:21:01;98878.13;;;6.71;80.80
8140;BME280;4111;50.972;7.072;2024-02-23T05:23:27;98870.06;;;6.76;80.57
8140;BME280;4111;50.972;7.072;2024-02-23T05:25:54;98861.66;;;6.67;80.77
8140;BME280;4111;50.972;7.072;2024-02-23T05:28:21;98867.34;;;6.66;80.45
8140;BME280;4111;50.972;7.072;2024-02-23T05:30:47;98862.50;;;6.68;80.42
8140;BME280;4111;50.972;7.072;2024-02-23T05:33:14;98863.28;;;6.63;80.39
8140;BME280;4111;50.972;7.072;2024-02-23T05:35:40;98860.34;;;6.60;80.73
8140;BME280;4111;50.972;7.072;2024-02-23T05:38:07;98856.53;;;6.61;80.73
8140;BME280;4111;50.972;7.072;2024-02-23T05:40:33;98856.25;;;6.57;80.74
8140;BME280;4111;50.972;7.072;2024-02-23T05:43:00;98849.78;;;6.53;80.78
8140;BME280;4111;50.972;7.072;2024-02-23T05:45:26;98863.53;;;6.46;80.70
8140;BME280;4111;50.972;7.072;2024-02-23T05:47:53;98855.44;;;6.51;80.82
8140;BME280;4111;50.972;7.072;2024-02-23T05:50:19;98856.00;;;6.59;81.08
8140;BME280;4111;50.972;7.072;2024-02-23T05:52:46;98864.59;;;6.55;81.15
8140;BME280;4111;50.972;7.072;2024-02-23T05:55:12;98869.19;;;6.55;81.00
8140;BME280;4111;50.972;7.072;2024-02-23T05:57:40;98872.44;;;6.52;81.26
8140;BME280;4111;50.972;7.072;2024-02-23T06:00:06;98867.31;;;6.50;81.02
8140;BME280;4111;50.972;7.072;2024-02-23T06:02:39;98867.31;;;6.50;81.29
8140;BME280;4111;50.972;7.072;2024-02-23T06:05:07;98869.69;;;6.42;81.41
8140;BME280;4111;50.972;7.072;2024-02-23T06:07:36;98870.25;;;6.39;81.77
8140;BME280;4111;50.972;7.072;2024-02-23T06:10:04;98864.28;;;6.31;82.05
8140;BME280;4111;50.972;7.072;2024-02-23T06:12:31;98858.09;;;6.31;81.86
8140;BME280;4111;50.972;7.072;2024-02-23T06:14:57;98857.00;;;6.27;81.96
8140;BME280;4111;50.972;7.072;2024-02-23T06:17:24;98860.22;;;6.24;82.22
8140;BME280;4111;50.972;7.072;2024-02-23T06:19:51;98861.28;;;6.28;81.96
8140;BME280;4111;50.972;7.072;2024-02-23T06:22:20;98862.13;;;6.28;81.86
8140;BME280;4111;50.972;7.072;2024-02-23T06:24:48;98856.19;;;6.31;82.11
8140;BME280;4111;50.972;7.072;2024-02-23T06:27:14;98855.66;;;6.29;82.25
8140;BME280;4111;50.972;7.072;2024-02-23T06:29:41;98852.78;;;6.62;85.14
8140;BME280;4111;50.972;7.072;2024-02-23T06:32:07;98847.69;;;6.96;85.38
8140;BME280;4111;50.972;7.072;2024-02-23T06:34:34;98853.59;;;7.49;85.94
8140;BME280;4111;50.972;7.072;2024-02-23T06:37:01;98853.34;;;7.51;83.70
8140;BME280;4111;50.972;7.072;2024-02-23T06:39:28;98861.72;;;7.29;82.54
8140;BME280;4111;50.972;7.072;2024-02-23T06:41:54;98864.16;;;7.00;81.65
8140;BME280;4111;50.972;7.072;2024-02-23T06:44:21;98864.69;;;6.91;82.32
8140;BME280;4111;50.972;7.072;2024-02-23T06:46:47;98866.84;;;6.84;82.03
8140;BME280;4111;50.972;7.072;2024-02-23T06:49:14;98866.56;;;6.81;82.26
8140;BME280;4111;50.972;7.072;2024-02-23T06:51:40;98864.66;;;6.71;82.09
8140;BME280;4111;50.972;7.072;2024-02-23T06:54:07;98861.94;;;6.61;82.15
8140;BME280;4111;50.972;7.072;2024-02-23T06:56:34;98860.34;;;6.60;82.41
8140;BME280;4111;50.972;7.072;2024-02-23T06:59:01;98861.91;;;6.50;82.97
8140;BME280;4111;50.972;7.072;2024-02-23T07:01:27;98853.03;;;6.55;82.61
8140;BME280;4111;50.972;7.072;2024-02-23T07:03:53;98850.63;;;6.59;82.49
8140;BME280;4111;50.972;7.072;2024-02-23T07:06:20;98854.94;;;6.60;82.37
8140;BME280;4111;50.972;7.072;2024-02-23T07:08:46;98855.47;;;6.62;82.15
8140;BME280;4111;50.972;7.072;2024-02-23T07:11:13;98860.84;;;6.57;82.17
8140;BME280;4111;50.972;7.072;2024-02-23T07:13:42;98865.13;;;6.47;81.99
8140;BME280;4111;50.972;7.072;2024-02-23T07:16:09;98870.50;;;6.37;82.00
8140;BME280;4111;50.972;7.072;2024-02-23T07:18:35;98871.00;;;6.29;82.21
8140;BME280;4111;50.972;7.072;2024-02-23T07:21:02;98872.63;;;6.30;82.49
8140;BME280;4111;50.972;7.072;2024-02-23T07:23:28;98880.13;;;6.18;83.01
8140;BME280;4111;50.972;7.072;2024-02-23T07:25:55;98878.53;;;6.17;83.28
8140;BME280;4111;50.972;7.072;2024-02-23T07:28:21;98885.00;;;6.21;83.30
8140;BME280;4111;50.972;7.072;2024-02-23T07:30:49;98869.94;;;6.25;83.62
8140;BME280;4111;50.972;7.072;2024-02-23T07:33:16;98870.50;;;6.32;83.76
8140;BME280;4111;50.972;7.072;2024-02-23T07:35:43;98863.78;;;6.45;83.68
8140;BME280;4111;50.972;7.072;2024-02-23T07:38:09;98866.22;;;6.51;83.38
8140;BME280;4111;50.972;7.072;2024-02-23T07:40:36;98865.16;;;6.52;83.36
8140;BME280;4111;50.972;7.072;2024-02-23T07:43:03;98857.06;;;6.52;83.21
8140;BME280;4111;50.972;7.072;2024-02-23T07:45:32;98853.00;;;6.45;83.36
8140;BME280;4111;50.972;7.072;2024-02-23T07:48:03;98850.03;;;6.51;83.52
8140;BME280;4111;50.972;7.072;2024-02-23T07:50:33;98844.63;;;6.41;83.60
8140;BME280;4111;50.972;7.072;2024-02-23T07:52:59;98846.28;;;6.52;83.79
8140;BME280;4111;50.972;7.072;2024-02-23T07:55:26;98856.03;;;6.64;83.38
8140;BME280;4111;50.972;7.072;2024-02-23T07:57:52;98853.88;;;6.76;83.27
8140;BME280;4111;50.972;7.072;2024-02-23T08:00:19;98850.13;;;6.87;82.75
8140;BME280;4111;50.972;7.072;2024-02-23T08:02:47;98839.84;;;6.94;82.48
8140;BME280;4111;50.972;7.072;2024-02-23T08:05:14;98857.69;;;7.06;81.99
8140;BME280;4111;50.972;7.072;2024-02-23T08:07:41;98858.47;;;7.06;81.55
8140;BME280;4111;50.972;7.072;2024-02-23T08:10:07;98862.81;;;7.12;80.84
8140;BME280;4111;50.972;7.072;2024-02-23T08:12:35;98870.38;;;7.26;81.13
8140;BME280;4111;50.972;7.072;2024-02-23T08:15:07;98876.56;;;7.42;80.51
8140;BME280;4111;50.972;7.072;2024-02-23T08:17:34;98882.22;;;7.45;80.16
8140;BME280;4111;50.972;7.072;2024-02-23T08:20:01;98884.66;;;7.57;79.98
8140;BME280;4111;50.972;7.072;2024-02-23T08:22:27;98889.75;;;7.64;79.65
8140;BME280;4111;50.972;7.072;2024-02-23T08:24:54;98889.25;;;7.57;79.24
8140;BME280;4111;50.972;7.072;2024-02-23T08:27:20;98884.13;;;7.55;79.26
8140;BME280;4111;50.972;7.072;2024-02-23T08:29:47;98888.94;;;7.58;79.02
8140;BME280;4111;50.972;7.072;2024-02-23T08:32:13;98881.69;;;7.59;78.63
8140;BME280;4111;50.972;7.072;2024-02-23T08:34:40;98890.59;;;7.54;78.34
8140;BME280;4111;50.972;7.072;2024-02-23T08:37:07;98885.72;;;7.61;78.64
8140;BME280;4111;50.972;7.072;2024-02-23T08:39:33;98885.72;;;7.61;78.70
8140;BME280;4111;50.972;7.072;2024-02-23T08:42:00;98895.16;;;7.64;79.09
8140;BME280;4111;50.972;7.072;2024-02-23T08:44:26;98883.56;;;7.63;78.55
8140;BME280;4111;50.972;7.072;2024-02-23T08:46:53;98882.75;;;7.63;78.79
8140;BME280;4111;50.972;7.072;2024-02-23T08:49:19;98884.38;;;7.69;78.79
8140;BME280;4111;50.972;7.072;2024-02-23T08:51:46;98891.09;;;7.71;78.56
8140;BME280;4111;50.972;7.072;2024-02-23T08:54:12;98891.63;;;7.79;78.73
8140;BME280;4111;50.972;7.072;2024-02-23T08:56:39;98902.72;;;7.82;78.01
8140;BME280;4111;50.972;7.072;2024-02-23T08:59:09;98906.22;;;7.88;78.41
8140;BME280;4111;50.972;7.072;2024-02-23T09:01:35;98901.59;;;7.99;78.27
8140;BME280;4111;50.972;7.072;2024-02-23T09:04:02;98906.19;;;7.98;78.10
8140;BME280;4111;50.972;7.072;2024-02-23T09:06:29;98911.03;;;8.01;77.11
8140;BME280;4111;50.972;7.072;2024-02-23T09:08:56;98912.66;;;8.02;77.37
8140;BME280;4111;50.972;7.072;2024-02-23T09:11:22;98902.94;;;7.96;76.77
8140;BME280;4111;50.972;7.072;2024-02-23T09:13:49;98910.50;;;8.04;76.62
8140;BME280;4111;50.972;7.072;2024-02-23T09:16:15;98906.69;;;8.10;76.65
8140;BME280;4111;50.972;7.072;2024-02-23T09:18:42;98902.03;;;8.21;75.99
8140;BME280;4111;50.972;7.072;2024-02-23T09:21:09;98914.50;;;8.17;75.86
8140;BME280;4111;50.972;7.072;2024-02-23T09:23:35;98910.72;;;8.18;76.18
8140;BME280;4111;50.972;7.072;2024-02-23T09:26:08;98918.56;;;8.20;75.40
8140;BME280;4111;50.972;7.072;2024-02-23T09:28:35;98921.25;;;8.20;75.09
8140;BME280;4111;50.972;7.072;2024-02-23T09:31:01;98926.13;;;8.07;74.66
8140;BME280;4111;50.972;7.072;2024-02-23T09:33:29;98922.63;;;8.12;74.60
8140;BME280;4111;50.972;7.072;2024-02-23T09:35:57;98910.44;;;8.20;74.81
8140;BME280;4111;50.972;7.072;2024-02-23T09:38:24;98923.41;;;8.23;74.49
8140;BME280;4111;50.972;7.072;2024-02-23T09:40:51;98912.59;;;8.23;74.01
8140;BME280;4111;50.972;7.072;2024-02-23T09:43:21;98913.38;;;8.33;74.56
8140;BME280;4111;50.972;7.072;2024-02-23T09:45:51;98907.13;;;8.33;74.29
8140;BME280;4111;50.972;7.072;2024-02-23T09:48:18;98900.63;;;8.44;74.20
8140;BME280;4111;50.972;7.072;2024-02-23T09:50:47;98898.13;;;8.58;73.82
8140;BME280;4111;50.972;7.072;2024-02-23T09:53:14;98898.44;;;8.96;73.63
8140;BME280;4111;50.972;7.072;2024-02-23T09:55:42;98889.66;;;9.15;73.48
8140;BME280;4111;50.972;7.072;2024-02-23T09:58:12;98910.50;;;9.14;72.45
8140;BME280;4111;50.972;7.072;2024-02-23T10:00:39;98917.88;;;9.08;72.14
8140;BME280;4111;50.972;7.072;2024-02-23T10:03:06;98916.88;;;8.94;71.70
8140;BME280;4111;50.972;7.072;2024-02-23T10:05:33;98904.69;;;8.97;71.64
8140;BME280;4111;50.972;7.072;2024-02-23T10:08:04;98912.16;;;9.10;71.51
8140;BME280;4111;50.972;7.072;2024-02-23T10:10:34;98932.47;;;9.07;71.71
8140;BME280;4111;50.972;7.072;2024-02-23T10:13:04;98922.75;;;9.06;70.76
8140;BME280;4111;50.972;7.072;2024-02-23T10:15:31;98925.59;;;9.25;70.50
8140;BME280;4111;50.972;7.072;2024-02-23T10:17:58;98919.00;;;9.37;70.07
8140;BME280;4111;50.972;7.072;2024-02-23T10:20:25;98917.06;;;9.42;70.08
8140;BME280;4111;50.972;7.072;2024-02-23T10:22:52;98926.63;;;9.35;69.94
8140;BME280;4111;50.972;7.072;2024-02-23T10:25:20;98928.75;;;9.38;70.21
8140;BME280;4111;50.972;7.072;2024-02-23T10:27:47;98934.22;;;9.32;70.30
8140;BME280;4111;50.972;7.072;2024-02-23T10:30:13;98936.41;;;9.30;70.56
8140;BME280;4111;50.972;7.072;2024-02-23T10:32:44;98937.03;;;9.17;70.61
8140;BME280;4111;50.972;7.072;2024-02-23T10:35:15;98944.16;;;9.03;70.36
8140;BME280;4111;50.972;7.072;2024-02-23T10:37:44;98928.34;;;9.20;70.44
8140;BME280;4111;50.972;7.072;2024-02-23T10:40:16;98934.13;;;9.43;69.97
8140;BME280;4111;50.972;7.072;2024-02-23T10:42:44;98945.50;;;9.40;69.78
8140;BME280;4111;50.972;7.072;2024-02-23T10:45:21;98929.25;;;9.40;69.57
8140;BME280;4111;50.972;7.072;2024-02-23T10:47:51;98939.53;;;9.43;69.71
8140;BME280;4111;50.972;7.072;2024-02-23T10:50:18;98947.22;;;9.30;69.66
8140;BME280;4111;50.972;7.072;2024-02-23T10:52:46;98948.91;;;9.21;70.14
8140;BME280;4111;50.972;7.072;2024-02-23T10:55:14;98946.72;;;9.23;70.23
8140;BME280;4111;50.972;7.072;2024-02-23T10:57:40;98941.59;;;9.22;70.21
8140;BME280;4111;50.972;7.072;2024-02-23T11:00:11;98942.94;;;9.24;70.63
8140;BME280;4111;50.972;7.072;2024-02-23T11:02:42;98941.91;;;9.15;70.25
8140;BME280;4111;50.972;7.072;2024-02-23T11:05:10;98948.41;;;9.14;70.60
8140;BME280;4111;50.972;7.072;2024-02-23T11:07:39;98942.16;;;9.19;70.46
8140;BME280;4111;50.972;7.072;2024-02-23T11:10:06;98942.44;;;9.17;71.01
8140;BME280;4111;50.972;7.072;2024-02-23T11:12:33;98946.19;;;9.21;72.08
8140;BME280;4111;50.972;7.072;2024-02-23T11:15:00;98936.41;;;9.30;71.82
8140;BME280;4111;50.972;7.072;2024-02-23T11:17:29;98939.13;;;9.25;71.12
8140;BME280;4111;50.972;7.072;2024-02-23T11:19:57;98947.78;;;9.27;70.87
8140;BME280;4111;50.972;7.072;2024-02-23T11:22:30;98922.94;;;9.20;70.34
8140;BME280;4111;50.972;7.072;2024-02-23T11:25:05;98933.75;;;9.20;69.87
8140;BME280;4111;50.972;7.072;2024-02-23T11:27:37;98941.88;;;9.20;69.51
8140;BME280;4111;50.972;7.072;2024-02-23T11:30:08;98933.22;;;9.18;69.07
8140;BME280;4111;50.972;7.072;2024-02-23T11:32:50;98930.97;;;9.30;69.39
8140;BME280;4111;50.972;7.072;2024-02-23T11:35:25;98934.16;;;9.38;69.42
8140;BME280;4111;50.972;7.072;2024-02-23T11:37:53;98927.06;;;9.42;69.44
8140;BME280;4111;50.972;7.072;2024-02-23T11:40:30;98922.13;;;9.54;69.44
8140;BME280;4111;50.972;7.072;2024-02-23T11:42:57;98926.19;;;9.51;69.66
8140;BME280;4111;50.972;7.072;2024-02-23T11:45:24;98934.94;;;9.43;70.19
8140;BME280;4111;50.972;7.072;2024-02-23T11:47:52;98932.56;;;9.37;70.39
8140;BME280;4111;50.972;7.072;2024-02-23T11:50:19;98925.56;;;9.30;70.90
8140;BME280;4111;50.972;7.072;2024-02-23T11:52:47;98919.56;;;9.33;71.05
8140;BME280;4111;50.972;7.072;2024-02-23T11:55:18;98922.75;;;9.46;71.26
8140;BME280;4111;50.972;7.072;2024-02-23T11:57:48;98914.00;;;9.54;71.38
8140;BME280;4111;50.972;7.072;2024-02-23T12:00:23;98919.97;;;9.51;71.48
8140;BME280;4111;50.972;7.072;2024-02-23T12:02:50;98913.16;;;9.53;70.67
8140;BME280;4111;50.972;7.072;2024-02-23T12:05:16;98913.00;;;9.40;70.53
8140;BME280;4111;50.972;7.072;2024-02-23T12:07:44;98912.53;;;9.32;70.77
8140;BME280;4111;50.972;7.072;2024-02-23T12:10:13;98920.34;;;9.39;70.77
8140;BME280;4111;50.972;7.072;2024-02-23T12:12:40;98903.81;;;9.41;70.20
8140;BME280;4111;50.972;7.072;2024-02-23T12:15:06;98906.53;;;9.36;70.06
8140;BME280;4111;50.972;7.072;2024-02-23T12:17:36;98920.94;;;9.31;69.67
8140;BME280;4111;50.972;7.072;2024-02-23T12:20:03;98911.97;;;9.36;69.85
8140;BME280;4111;50.972;7.072;2024-02-23T12:22:30;98905.56;;;9.26;69.75
8140;BME280;4111;50.972;7.072;2024-02-23T12:24:57;98909.41;;;9.20;70.16
8140;BME280;4111;50.972;7.072;2024-02-23T12:27:24;98912.03;;;9.25;70.12
8140;BME280;4111;50.972;7.072;2024-02-23T12:29:54;98923.94;;;9.29;70.52
8140;BME280;4111;50.972;7.072;2024-02-23T12:32:21;98918.50;;;9.29;70.62
8140;BME280;4111;50.972;7.072;2024-02-23T12:34:48;98911.50;;;9.28;70.82
8140;BME280;4111;50.972;7.072;2024-02-23T12:37:15;98904.59;;;9.41;70.78
8140;BME280;4111;50.972;7.072;2024-02-23T12:39:45;98908.63;;;9.44;70.94
8140;BME280;4111;50.972;7.072;2024-02-23T12:42:11;98905.13;;;9.43;71.03
8140;BME280;4111;50.972;7.072;2024-02-23T12:44:38;98898.56;;;9.49;71.18
8140;BME280;4111;50.972;7.072;2024-02-23T12:47:05;98912.44;;;9.48;70.69
8140;BME280;4111;50.972;7.072;2024-02-23T12:49:31;98924.84;;;9.54;70.69
8140;BME280;4111;50.972;7.072;2024-02-23T12:51:59;98919.72;;;9.47;70.33
8140;BME280;4111;50.972;7.072;2024-02-23T12:54:25;98907.44;;;9.60;70.41
8140;BME280;4111;50.972;7.072;2024-02-23T12:56:52;98914.34;;;9.71;70.68
8140;BME280;4111;50.972;7.072;2024-02-23T12:59:18;98915.63;;;9.79;70.32
8140;BME280;4111;50.972;7.072;2024-02-23T13:01:45;98912.09;;;9.84;70.25
8140;BME280;4111;50.972;7.072;2024-02-23T13:04:14;98904.81;;;9.79;70.13
8140;BME280;4111;50.972;7.072;2024-02-23T13:06:41;98892.75;;;10.15;70.57
8140;BME280;4111;50.972;7.072;2024-02-23T13:09:08;98893.53;;;10.20;69.08
8140;BME280;4111;50.972;7.072;2024-02-23T13:11:38;98909.41;;;10.32;68.38
8140;BME280;4111;50.972;7.072;2024-02-23T13:14:04;98898.50;;;10.37;68.34
8140;BME280;4111;50.972;7.072;2024-02-23T13:16:31;98897.34;;;10.19;66.96
8140;BME280;4111;50.972;7.072;2024-02-23T13:18:58;98902.78;;;10.19;67.07
8140;BME280;4111;50.972;7.072;2024-02-23T13:21:24;98901.41;;;10.17;67.81
8140;BME280;4111;50.972;7.072;2024-02-23T13:23:51;98904.13;;;10.17;68.50
8140;BME280;4111;50.972;7.072;2024-02-23T13:26:17;98894.69;;;10.14;68.81
8140;BME280;4111;50.972;7.072;2024-02-23T13:28:44;98906.50;;;9.99;69.38
8140;BME280;4111;50.972;7.072;2024-02-23T13:31:11;98899.19;;;10.00;70.00
8140;BME280;4111;50.972;7.072;2024-02-23T13:33:38;98890.06;;;10.15;70.01